createdAt,value
2023-02-14T00:00:35.519Z,2.42
2023-02-14T00:03:37.311Z,2.85
2023-02-14T00:06:40.424Z,2.63
2023-02-14T00:09:42.119Z,1.83
2023-02-14T00:12:43.853Z,2.45
2023-02-14T00:15:46.216Z,2.38
2023-02-14T00:19:03.240Z,2.42
2023-02-14T00:22:06.598Z,2.78
2023-02-14T00:25:08.389Z,2.63
2023-02-14T00:28:10.067Z,1.98
2023-02-14T00:31:12.107Z,3.10
2023-02-14T00:34:16.456Z,3.00
2023-02-14T00:37:19.515Z,1.85
2023-02-14T00:40:21.332Z,2.13
2023-02-14T00:43:22.987Z,2.08
2023-02-14T00:46:26.405Z,2.50
2023-02-14T00:49:28.163Z,2.45
2023-02-14T00:52:31.722Z,2.30
2023-02-14T00:55:33.499Z,2.90
2023-02-14T00:58:35.423Z,2.40
2023-02-14T01:01:37.137Z,2.28
2023-02-14T01:04:38.853Z,1.77
2023-02-14T01:07:42.728Z,1.65
2023-02-14T01:10:46.155Z,3.05
2023-02-14T01:13:49.729Z,1.75
2023-02-14T01:16:51.434Z,2.55
2023-02-14T01:19:53.821Z,2.10
2023-02-14T01:22:57.507Z,2.38
2023-02-14T01:26:03.457Z,2.80
2023-02-14T01:29:05.561Z,2.30
2023-02-14T01:32:07.332Z,1.73
2023-02-14T01:35:09.838Z,2.17
2023-02-14T01:38:12.825Z,2.63
2023-02-14T01:41:15.346Z,2.72
2023-02-14T01:44:55.734Z,2.33
2023-02-14T01:47:58.734Z,2.47
2023-02-14T01:51:00.808Z,1.90
2023-02-14T01:54:06.750Z,2.10
2023-02-14T01:57:12.672Z,2.53
2023-02-14T02:00:34.172Z,2.40
2023-02-14T02:03:39.532Z,2.42
2023-02-14T02:06:45.479Z,2.15
2023-02-14T02:09:53.595Z,2.13
2023-02-14T02:13:03.566Z,3.35
2023-02-14T02:16:42.359Z,2.67
2023-02-14T02:20:17.420Z,2.20
2023-02-14T02:23:58.287Z,2.22
2023-02-14T02:27:17.502Z,3.13
2023-02-14T02:30:39.441Z,2.15
2023-02-14T02:34:22.032Z,2.53
2023-02-14T02:37:46.086Z,1.35
2023-02-14T02:41:03.784Z,2.42
2023-02-14T02:44:15.318Z,2.53
2023-02-14T02:47:22.371Z,1.80
2023-02-14T02:50:50.862Z,2.45
2023-02-14T02:54:00.353Z,3.10
2023-02-14T02:57:05.487Z,2.85
2023-02-14T03:00:11.846Z,1.80
2023-02-14T03:06:34.259Z,1.92
2023-02-14T03:09:53.079Z,2.00
2023-02-14T03:13:13.923Z,2.47
2023-02-14T03:16:32.100Z,2.47
2023-02-14T03:20:07.297Z,2.83
2023-02-14T03:23:17.346Z,2.22
2023-02-14T03:26:28.097Z,1.88
2023-02-14T03:29:42.937Z,2.78
2023-02-14T03:32:49.866Z,2.60
2023-02-14T03:36:02.927Z,3.00
2023-02-14T03:39:10.683Z,3.28
2023-02-14T03:42:19.123Z,3.65
2023-02-14T03:45:27.744Z,3.20
2023-02-14T03:48:32.213Z,3.28
2023-02-14T03:51:35.985Z,3.08
2023-02-14T03:54:38.540Z,3.20
2023-02-14T03:57:50.283Z,3.28
2023-02-14T04:01:00.827Z,2.65
2023-02-14T04:04:06.326Z,2.50
2023-02-14T04:07:10.334Z,3.58
2023-02-14T04:10:12.359Z,3.72
2023-02-14T04:13:15.458Z,2.78
2023-02-14T04:16:17.236Z,2.15
2023-02-14T04:19:24.715Z,2.88
2023-02-14T04:22:27.410Z,3.33
2023-02-14T04:25:30.125Z,2.78
2023-02-14T04:28:33.863Z,2.92
2023-02-14T04:31:35.589Z,3.22
2023-02-14T04:34:38.448Z,2.20
2023-02-14T04:37:40.349Z,2.67
2023-02-14T04:40:42.216Z,3.88
2023-02-14T04:43:45.352Z,3.55
2023-02-14T04:46:47.208Z,2.10
2023-02-14T04:49:48.882Z,4.00
2023-02-14T04:52:50.566Z,3.25
2023-02-14T04:55:52.336Z,3.83
2023-02-14T04:58:55.915Z,2.72
2023-02-14T05:01:57.703Z,2.60
2023-02-14T05:04:59.431Z,3.35
2023-02-14T05:08:01.179Z,3.35
2023-02-14T05:11:03.050Z,3.00
2023-02-14T05:14:06.158Z,3.15
2023-02-14T05:17:07.978Z,3.78
2023-02-14T05:20:10.247Z,2.78
2023-02-14T05:23:13.837Z,4.20
2023-02-14T05:26:15.559Z,3.22
2023-02-14T05:29:18.595Z,3.10
2023-02-14T05:32:20.289Z,3.70
2023-02-14T05:35:22.035Z,3.38
2023-02-14T05:38:23.658Z,3.45
2023-02-14T05:41:25.431Z,3.35
2023-02-14T05:44:28.546Z,3.50
2023-02-14T05:47:30.328Z,3.05
2023-02-14T05:50:32.000Z,4.00
2023-02-14T05:53:34.049Z,3.35
2023-02-14T05:56:35.768Z,2.92
2023-02-14T05:59:38.888Z,3.58
2023-02-14T06:02:40.965Z,3.15
2023-02-14T06:05:42.649Z,3.25
2023-02-14T06:08:44.300Z,3.65
2023-02-14T06:11:46.013Z,4.50
2023-02-14T06:14:49.077Z,3.63
2023-02-14T06:17:52.981Z,3.85
2023-02-14T06:20:55.810Z,3.63
2023-02-14T06:23:57.541Z,3.05
2023-02-14T06:27:00.130Z,3.30
2023-02-14T06:30:04.407Z,3.47
2023-02-14T06:33:06.805Z,4.55
2023-02-14T06:36:09.073Z,3.53
2023-02-14T06:39:10.795Z,4.00
2023-02-14T06:42:12.452Z,3.95
2023-02-14T06:45:15.668Z,4.20
2023-02-14T06:48:17.475Z,4.25
2023-02-14T06:51:19.582Z,5.82
2023-02-14T06:54:21.244Z,5.95
2023-02-14T06:57:22.911Z,4.93
2023-02-14T07:00:26.114Z,5.45
2023-02-14T07:03:28.217Z,5.45
2023-02-14T07:06:30.745Z,4.88
2023-02-14T07:09:32.489Z,3.63
2023-02-14T07:12:34.911Z,6.03
2023-02-14T07:15:38.204Z,5.82
2023-02-14T07:18:40.065Z,5.90
2023-02-14T07:21:41.819Z,5.22
2023-02-14T07:24:44.494Z,6.93
2023-02-14T07:27:46.228Z,4.53
2023-02-14T07:30:49.470Z,5.13
2023-02-14T07:33:51.670Z,4.60
2023-02-14T07:36:53.366Z,7.22
2023-02-14T07:39:55.105Z,5.22
2023-02-14T07:42:58.621Z,8.13
2023-02-14T07:46:02.010Z,6.40
2023-02-14T07:49:03.954Z,7.75
2023-02-14T07:52:05.751Z,5.95
2023-02-14T07:55:08.027Z,5.57
2023-02-14T07:58:09.724Z,6.72
2023-02-14T08:01:12.849Z,5.53
2023-02-14T08:04:14.616Z,7.05
2023-02-14T08:07:16.326Z,5.45
2023-02-14T08:10:18.355Z,6.32
2023-02-14T08:13:20.454Z,7.07
2023-02-14T08:16:23.675Z,4.38
2023-02-14T08:19:25.416Z,6.00
2023-02-14T08:22:27.106Z,5.78
2023-02-14T08:25:28.887Z,4.75
2023-02-14T08:28:32.975Z,4.35
2023-02-14T08:31:37.397Z,5.57
2023-02-14T08:34:39.138Z,5.75
2023-02-14T08:37:41.160Z,6.72
2023-02-14T08:40:43.026Z,4.75
2023-02-14T08:43:45.336Z,4.38
2023-02-14T08:46:48.588Z,4.85
2023-02-14T08:49:50.425Z,5.60
2023-02-14T08:52:52.203Z,5.20
2023-02-14T08:55:53.888Z,5.07
2023-02-14T08:58:56.486Z,4.22
2023-02-14T09:01:59.565Z,3.95
2023-02-14T09:05:01.360Z,5.97
2023-02-14T09:08:03.819Z,4.35
2023-02-14T09:11:09.164Z,4.50
2023-02-14T09:17:15.312Z,4.03
2023-02-14T09:20:17.158Z,4.65
2023-02-14T09:23:18.840Z,2.38
2023-02-14T09:26:21.005Z,5.55
2023-02-14T09:29:23.023Z,4.68
2023-02-14T09:32:29.330Z,3.90
2023-02-14T09:35:49.871Z,4.97
2023-02-14T09:38:51.710Z,5.68
2023-02-14T09:42:15.251Z,4.57
2023-02-14T09:45:21.019Z,5.35
2023-02-14T09:48:29.658Z,5.57
2023-02-14T09:51:32.177Z,5.50
2023-02-14T09:54:35.932Z,4.70
2023-02-14T09:57:45.091Z,6.50
2023-02-14T10:00:50.499Z,4.95
2023-02-14T10:04:06.677Z,6.13
2023-02-14T10:07:18.513Z,6.05
2023-02-14T10:10:25.938Z,6.00
2023-02-14T10:13:35.328Z,5.57
2023-02-14T10:16:43.545Z,5.68
2023-02-14T10:19:52.317Z,5.43
2023-02-14T10:23:01.918Z,4.57
2023-02-14T10:26:05.936Z,3.53
2023-02-14T10:29:14.323Z,6.55
2023-02-14T10:32:23.344Z,5.85
2023-02-14T10:35:35.289Z,4.18
2023-02-14T10:38:47.436Z,5.93
2023-02-14T10:41:53.192Z,6.15
2023-02-14T10:45:05.891Z,5.88
2023-02-14T10:48:17.906Z,5.88
2023-02-14T10:51:28.382Z,6.28
2023-02-14T10:54:39.271Z,6.13
2023-02-14T10:57:45.411Z,5.65
2023-02-14T11:00:58.935Z,6.10
2023-02-14T11:04:06.508Z,5.63
2023-02-14T11:07:13.819Z,6.40
2023-02-14T11:10:17.416Z,7.43
2023-02-14T11:13:31.361Z,5.70
2023-02-14T11:16:35.674Z,6.05
2023-02-14T11:19:38.836Z,5.75
2023-02-14T11:22:42.009Z,6.78
2023-02-14T11:25:51.015Z,6.35
2023-02-14T11:28:56.671Z,6.70
2023-02-14T11:32:07.773Z,6.93
2023-02-14T11:35:20.018Z,5.70
2023-02-14T11:38:30.358Z,6.88
2023-02-14T11:41:47.997Z,5.97
2023-02-14T11:44:55.808Z,6.55
2023-02-14T11:48:10.184Z,7.07
2023-02-14T11:51:16.724Z,7.35
2023-02-14T11:54:30.353Z,6.20
2023-02-14T11:57:35.057Z,6.43
2023-02-14T12:00:37.534Z,5.57
2023-02-14T12:03:45.576Z,7.15
2023-02-14T12:06:47.443Z,5.22
2023-02-14T12:10:09.377Z,6.63
2023-02-14T12:13:24.001Z,5.97
2023-02-14T12:16:32.535Z,6.30
2023-02-14T12:19:41.396Z,5.63
2023-02-14T12:22:49.962Z,5.68
2023-02-14T12:26:01.555Z,5.78
2023-02-14T12:29:14.230Z,6.75
2023-02-14T12:32:21.750Z,8.23
2023-02-14T12:35:42.195Z,5.43
2023-02-14T12:38:54.777Z,6.70
2023-02-14T12:42:11.954Z,6.03
2023-02-14T12:45:20.458Z,6.93
2023-02-14T12:48:32.153Z,6.78
2023-02-14T12:51:40.891Z,6.97
2023-02-14T12:54:54.216Z,5.15
2023-02-14T12:58:02.489Z,3.63
2023-02-14T13:01:38.618Z,6.78
2023-02-14T13:04:55.279Z,5.25
2023-02-14T13:08:13.885Z,7.25
2023-02-14T13:11:25.163Z,4.55
2023-02-14T13:17:43.296Z,6.03
2023-02-14T13:20:52.287Z,7.50
2023-02-14T13:24:00.163Z,5.63
2023-02-14T13:27:06.920Z,6.97
2023-02-14T13:30:19.294Z,7.35
2023-02-14T13:33:27.644Z,7.47
2023-02-14T13:36:31.889Z,7.18
2023-02-14T13:39:38.788Z,7.68
2023-02-14T13:42:56.809Z,7.25
2023-02-14T13:46:00.105Z,6.50
2023-02-14T13:49:17.542Z,6.35
2023-02-14T13:52:39.809Z,7.35
2023-02-14T13:55:45.760Z,7.05
2023-02-14T13:58:50.090Z,6.88
2023-02-14T14:01:53.096Z,7.45
2023-02-14T14:04:55.211Z,8.00
2023-02-14T14:08:32.776Z,6.15
2023-02-14T14:11:59.671Z,7.13
2023-02-14T14:15:14.934Z,7.05
2023-02-14T14:18:41.753Z,6.35
2023-02-14T14:21:58.998Z,7.25
2023-02-14T14:25:04.978Z,4.65
2023-02-14T14:28:11.203Z,8.40
2023-02-14T14:31:13.970Z,7.43
2023-02-14T14:34:19.292Z,6.60
2023-02-14T14:40:26.307Z,6.63
2023-02-14T14:43:31.057Z,6.85
2023-02-14T14:46:33.566Z,6.30
2023-02-14T14:49:36.825Z,8.35
2023-02-14T14:52:41.710Z,6.65
2023-02-14T14:55:46.218Z,5.28
2023-02-14T14:58:53.324Z,7.78
2023-02-14T15:01:57.341Z,6.07
2023-02-14T15:05:17.369Z,8.93
2023-02-14T15:08:22.409Z,5.80
2023-02-14T15:11:46.159Z,6.78
2023-02-14T15:14:54.695Z,5.90
2023-02-14T15:17:56.670Z,7.05
2023-02-14T15:21:00.174Z,7.38
2023-02-14T15:24:03.103Z,4.60
2023-02-14T15:27:05.000Z,6.43
2023-02-14T15:30:23.224Z,8.13
2023-02-14T15:33:25.468Z,6.15
2023-02-14T15:36:30.291Z,5.72
2023-02-14T15:39:35.442Z,8.45
2023-02-14T15:42:40.928Z,5.93
2023-02-14T15:45:43.347Z,7.28
2023-02-14T15:48:46.450Z,7.20
2023-02-14T15:51:51.047Z,8.07
2023-02-14T15:54:52.836Z,8.90
2023-02-14T15:57:56.809Z,7.03
2023-02-14T16:01:00.079Z,7.78
2023-02-14T16:04:04.960Z,9.25
2023-02-14T16:07:24.350Z,7.10
2023-02-14T16:10:27.399Z,6.50
2023-02-14T16:13:31.397Z,7.40
2023-02-14T16:16:57.567Z,7.15
2023-02-14T16:19:59.547Z,6.15
2023-02-14T16:23:21.696Z,7.40
2023-02-14T16:26:23.768Z,6.60
2023-02-14T16:29:25.658Z,5.75
2023-02-14T16:32:27.404Z,6.85
2023-02-14T16:35:30.481Z,7.07
2023-02-14T16:38:41.410Z,8.25
2023-02-14T16:41:44.707Z,7.75
2023-02-14T16:44:47.018Z,7.22
2023-02-14T16:47:49.005Z,7.47
2023-02-14T16:50:50.750Z,6.65
2023-02-14T16:53:56.953Z,9.60
2023-02-14T16:57:02.183Z,7.20
2023-02-14T17:00:06.737Z,7.88
2023-02-14T17:03:11.341Z,8.10
2023-02-14T17:06:19.009Z,7.00
2023-02-14T17:09:25.733Z,7.97
2023-02-14T17:12:30.245Z,6.85
2023-02-14T17:15:33.899Z,7.95
2023-02-14T17:18:36.668Z,6.13
2023-02-14T17:21:38.660Z,7.47
2023-02-14T17:24:41.819Z,6.53
2023-02-14T17:27:44.795Z,8.25
2023-02-14T17:30:47.458Z,7.18
2023-02-14T17:33:49.146Z,8.40
2023-02-14T17:36:51.911Z,7.55
2023-02-14T17:39:55.207Z,7.07
2023-02-14T17:42:57.088Z,7.07
2023-02-14T17:45:58.793Z,6.60
2023-02-14T17:49:02.621Z,7.35
2023-02-14T17:52:04.639Z,8.57
2023-02-14T17:55:09.372Z,7.80
2023-02-14T17:58:11.157Z,8.60
2023-02-14T18:01:13.578Z,7.90
2023-02-14T18:04:15.398Z,7.53
2023-02-14T18:07:17.152Z,7.75
2023-02-14T18:10:20.936Z,7.45
2023-02-14T18:13:23.219Z,7.35
2023-02-14T18:16:25.321Z,8.13
2023-02-14T18:19:27.358Z,8.45
2023-02-14T18:22:29.217Z,9.25
2023-02-14T18:25:32.448Z,6.97
2023-02-14T18:28:35.146Z,7.30
2023-02-14T18:31:39.574Z,7.63
2023-02-14T18:34:41.427Z,7.95
2023-02-14T18:37:43.281Z,7.10
2023-02-14T18:40:47.580Z,7.78
2023-02-14T18:43:50.122Z,6.63
2023-02-14T18:46:52.203Z,6.88
2023-02-14T18:49:53.996Z,7.13
2023-02-14T18:52:55.694Z,6.78
2023-02-14T18:55:58.952Z,5.53
2023-02-14T18:59:03.374Z,6.13
2023-02-14T19:02:05.194Z,7.30
2023-02-14T19:05:07.872Z,5.35
2023-02-14T19:08:09.834Z,6.75
2023-02-14T19:11:15.808Z,5.25
2023-02-14T19:14:18.282Z,6.47
2023-02-14T19:17:20.079Z,5.45
2023-02-14T19:20:22.298Z,6.78
2023-02-14T19:23:24.042Z,7.88
2023-02-14T19:26:30.047Z,6.43
2023-02-14T19:29:31.827Z,7.30
2023-02-14T19:32:33.704Z,7.00
2023-02-14T19:35:35.456Z,7.15
2023-02-14T19:38:37.637Z,7.57
2023-02-14T19:41:40.822Z,7.43
2023-02-14T19:44:42.723Z,6.47
2023-02-14T19:47:47.373Z,6.57
2023-02-14T19:50:49.756Z,5.30
2023-02-14T19:53:52.808Z,7.72
2023-02-14T19:56:56.267Z,6.70
2023-02-14T19:59:58.291Z,6.68
2023-02-14T20:03:00.762Z,7.88
2023-02-14T20:06:02.816Z,5.95
2023-02-14T20:09:05.048Z,7.30
2023-02-14T20:12:09.561Z,5.70
2023-02-14T20:15:11.298Z,6.25
2023-02-14T20:18:13.089Z,5.85
2023-02-14T20:21:16.718Z,5.80
2023-02-14T20:24:22.769Z,5.47
2023-02-14T20:27:25.884Z,4.55
2023-02-14T20:30:28.056Z,6.95
2023-02-14T20:33:52.728Z,5.80
2023-02-14T20:36:55.695Z,5.93
2023-02-14T20:39:57.892Z,6.50
2023-02-14T20:43:01.060Z,5.68
2023-02-14T20:46:04.113Z,5.78
2023-02-14T20:49:05.960Z,7.20
2023-02-14T20:52:07.588Z,5.65
2023-02-14T20:55:09.316Z,5.97
2023-02-14T20:58:12.983Z,4.88
2023-02-14T21:01:16.876Z,6.07
2023-02-14T21:04:18.918Z,5.28
2023-02-14T21:07:21.799Z,5.78
2023-02-14T21:10:23.693Z,5.55
2023-02-14T21:13:26.820Z,5.30
2023-02-14T21:16:29.597Z,5.43
2023-02-14T21:19:31.932Z,5.70
2023-02-14T21:22:33.716Z,4.68
2023-02-14T21:25:35.489Z,5.95
2023-02-14T21:28:38.924Z,3.65
2023-02-14T21:31:42.363Z,5.28
2023-02-14T21:34:44.228Z,4.95
2023-02-14T21:37:45.916Z,4.50
2023-02-14T21:40:47.625Z,3.92
2023-02-14T21:43:55.053Z,4.53
2023-02-14T21:46:56.721Z,5.00
2023-02-14T21:50:16.928Z,4.53
2023-02-14T21:53:19.765Z,4.95
2023-02-14T21:56:22.603Z,5.05
2023-02-14T21:59:25.822Z,4.57
2023-02-14T22:02:27.613Z,5.68
2023-02-14T22:05:29.255Z,4.68
2023-02-14T22:08:31.663Z,6.85
2023-02-14T22:11:34.105Z,5.60
2023-02-14T22:14:37.429Z,5.85
2023-02-14T22:17:39.099Z,4.55
2023-02-14T22:20:41.970Z,4.07
2023-02-14T22:23:44.278Z,6.15
2023-02-14T22:26:46.013Z,5.30
2023-02-14T22:29:49.092Z,5.38
2023-02-14T22:32:50.838Z,4.32
2023-02-14T22:35:54.610Z,3.97
2023-02-14T22:38:56.370Z,4.03
2023-02-14T22:41:58.369Z,4.15
2023-02-14T22:45:01.455Z,5.20
2023-02-14T22:48:03.611Z,5.70
2023-02-14T22:51:10.744Z,4.20
2023-02-14T22:54:15.070Z,4.45
2023-02-14T22:57:18.447Z,5.47
2023-02-14T23:00:23.110Z,5.75
2023-02-14T23:03:25.037Z,6.32
2023-02-14T23:06:28.925Z,4.55
2023-02-14T23:09:30.791Z,4.15
2023-02-14T23:12:51.224Z,4.43
2023-02-14T23:16:12.916Z,4.65
2023-02-14T23:19:35.200Z,5.60
2023-02-14T23:22:38.316Z,5.30
2023-02-14T23:25:42.145Z,4.93
2023-02-14T23:28:44.007Z,6.28
2023-02-14T23:31:47.222Z,5.97
2023-02-14T23:34:49.094Z,4.78
2023-02-14T23:37:50.795Z,6.22
2023-02-14T23:41:11.083Z,5.63
2023-02-14T23:44:13.214Z,5.28
2023-02-14T23:47:16.606Z,4.55
2023-02-14T23:50:18.589Z,5.00
2023-02-14T23:53:20.260Z,4.07
2023-02-14T23:56:22.039Z,4.53
2023-02-14T23:59:23.700Z,4.20
